Time;durP1;ratioP1;P1;durP2;ratioP2;P2;SDS_P1;SDS_P2;PMS_P1;PMS_P2;Temp;Humidity;BMP_temperature;BMP_pressure;BME280_temperature;BME280_humidity;BME280_pressure;Samples;Min_cycle;Max_cycle;Signal;HPM_P1;HPM_P2
2020/12/29 00:00:09;;;;;;;2.67;1.90;;;;;;;;;;4402834;32;20229;-60
2020/12/29 00:02:35;;;;;;;4.77;1.77;;;;;;;;;;4404183;32;20310;-56
2020/12/29 00:05:01;;;;;;;2.60;1.90;;;;;;;;;;4402663;32;20304;-56
2020/12/29 00:07:26;;;;;;;3.17;1.77;;;;;;;;;;4404053;32;20276;-56
2020/12/29 00:09:52;;;;;;;3.33;2.00;;;;;;;;;;4403640;32;20338;-58
2020/12/29 00:12:18;;;;;;;5.20;2.40;;;;;;;;;;4403953;32;20344;-59
2020/12/29 00:14:43;;;;;;;4.43;2.07;;;;;;;;;;4402845;32;20695;-59
2020/12/29 00:17:09;;;;;;;7.10;2.30;;;;;;;;;;4403940;32;20292;-58
2020/12/29 00:19:34;;;;;;;2.60;1.93;;;;;;;;;;4403867;32;20681;-59
2020/12/29 00:21:59;;;;;;;2.97;2.00;;;;;;;;;;4402849;32;20504;-59
2020/12/29 00:24:25;;;;;;;5.73;2.60;;;;;;;;;;4403845;32;20297;-56
2020/12/29 00:26:50;;;;;;;2.33;1.70;;;;;;;;;;4402674;32;20361;-57
2020/12/29 00:29:16;;;;;;;2.70;1.70;;;;;;;;;;4402786;32;20338;-56
2020/12/29 00:31:41;;;;;;;3.13;1.33;;;;;;;;;;4403607;32;20308;-56
2020/12/29 00:34:07;;;;;;;3.97;1.70;;;;;;;;;;4403793;32;20661;-55
2020/12/29 00:36:33;;;;;;;3.17;2.00;;;;;;;;;;4403817;32;20302;-60
2020/12/29 00:38:58;;;;;;;3.83;2.10;;;;;;;;;;4403454;32;20581;-57
2020/12/29 00:41:24;;;;;;;8.30;1.67;;;;;;;;;;4402709;32;20334;-59
2020/12/29 00:43:50;;;;;;;5.37;2.30;;;;;;;;;;4403641;32;20694;-59
2020/12/29 00:46:18;;;;;;;5.17;2.03;;;;;;;;;;4403784;32;20331;-61
2020/12/29 00:48:44;;;;;;;3.57;1.70;;;;;;;;;;4403480;32;20237;-58
2020/12/29 00:51:15;;;;;;;3.33;1.63;;;;;;;;;;4403531;32;20403;-57
2020/12/29 00:53:41;;;;;;;2.67;1.60;;;;;;;;;;4410966;32;20757;-59
2020/12/29 00:56:08;;;;;;;5.47;2.87;;;;;;;;;;4417058;32;20525;-60
2020/12/29 00:58:34;;;;;;;7.70;2.77;;;;;;;;;;4418469;32;20377;-57
2020/12/29 01:00:59;;;;;;;6.13;2.33;;;;;;;;;;4418587;32;20683;-56
2020/12/29 01:03:26;;;;;;;3.13;1.57;;;;;;;;;;4418488;32;20277;-57
2020/12/29 01:05:51;;;;;;;2.67;1.67;;;;;;;;;;4418530;32;20318;-56
2020/12/29 01:08:17;;;;;;;8.63;2.23;;;;;;;;;;4417281;32;20300;-59
2020/12/29 01:10:46;;;;;;;3.43;1.37;;;;;;;;;;4418126;32;20201;-59
2020/12/29 01:13:13;;;;;;;3.20;1.80;;;;;;;;;;4418291;32;20213;-60
2020/12/29 01:15:38;;;;;;;2.40;1.63;;;;;;;;;;4417869;32;20287;-59
2020/12/29 01:18:04;;;;;;;3.10;1.70;;;;;;;;;;4418368;32;20276;-56
2020/12/29 01:20:30;;;;;;;4.43;2.03;;;;;;;;;;4416986;32;20228;-59
2020/12/29 01:22:55;;;;;;;3.10;1.50;;;;;;;;;;4418372;32;20280;-59
2020/12/29 01:25:23;;;;;;;4.53;1.63;;;;;;;;;;4417976;32;20299;-59
2020/12/29 01:27:49;;;;;;;3.77;1.70;;;;;;;;;;4417930;32;20280;-58
2020/12/29 01:30:16;;;;;;;4.97;1.40;;;;;;;;;;4418004;32;20284;-58
2020/12/29 01:32:43;;;;;;;3.17;1.80;;;;;;;;;;4418034;32;20240;-55
2020/12/29 01:35:08;;;;;;;4.07;1.63;;;;;;;;;;4417867;32;20260;-55
2020/12/29 01:37:35;;;;;;;3.17;1.73;;;;;;;;;;4418049;32;20322;-56
2020/12/29 01:40:01;;;;;;;2.13;1.47;;;;;;;;;;4416643;32;20338;-59
2020/12/29 01:42:26;;;;;;;2.57;1.30;;;;;;;;;;4416731;32;20308;-59
2020/12/29 01:44:52;;;;;;;4.77;2.03;;;;;;;;;;4417552;32;20294;-58
2020/12/29 01:47:18;;;;;;;3.20;1.97;;;;;;;;;;4418427;32;20718;-57
2020/12/29 01:49:44;;;;;;;6.07;2.00;;;;;;;;;;4418003;32;20220;-56
2020/12/29 01:52:10;;;;;;;6.50;2.23;;;;;;;;;;4416552;32;20353;-58
2020/12/29 01:54:36;;;;;;;5.97;1.73;;;;;;;;;;4402867;32;20233;-55
2020/12/29 01:57:01;;;;;;;4.20;1.97;;;;;;;;;;4401381;32;20390;-58
2020/12/29 01:59:27;;;;;;;6.30;1.97;;;;;;;;;;4401459;32;20249;-59
2020/12/29 02:01:53;;;;;;;5.77;2.10;;;;;;;;;;4402920;32;20364;-58
2020/12/29 02:04:19;;;;;;;3.30;2.20;;;;;;;;;;4402562;32;20259;-56
2020/12/29 02:06:45;;;;;;;3.30;1.60;;;;;;;;;;4402559;32;20272;-58
2020/12/29 02:09:15;;;;;;;4.90;1.67;;;;;;;;;;4402377;32;20365;-56
2020/12/29 02:11:40;;;;;;;5.97;1.50;;;;;;;;;;4402558;32;20290;-59
2020/12/29 02:14:08;;;;;;;3.33;1.37;;;;;;;;;;4402681;32;20237;-58
2020/12/29 02:16:40;;;;;;;3.73;1.90;;;;;;;;;;4402630;32;20228;-59
2020/12/29 02:19:06;;;;;;;2.00;1.47;;;;;;;;;;4401444;32;20251;-59
2020/12/29 02:21:33;;;;;;;6.17;1.83;;;;;;;;;;4402935;32;20335;-57
2020/12/29 02:24:00;;;;;;;4.93;1.80;;;;;;;;;;4401066;32;20609;-59
2020/12/29 02:26:27;;;;;;;5.50;2.13;;;;;;;;;;4402807;32;20278;-58
2020/12/29 02:28:59;;;;;;;4.27;1.47;;;;;;;;;;4404192;32;20696;-59
2020/12/29 02:31:25;;;;;;;2.90;1.60;;;;;;;;;;4406013;32;20528;-55
2020/12/29 02:33:50;;;;;;;5.13;1.60;;;;;;;;;;4403970;32;20300;-57
2020/12/29 02:36:16;;;;;;;3.70;1.73;;;;;;;;;;4405379;32;20292;-57
2020/12/29 02:38:42;;;;;;;5.63;1.50;;;;;;;;;;4405437;32;20309;-56
2020/12/29 02:41:07;;;;;;;4.00;1.60;;;;;;;;;;4405419;32;20280;-57
2020/12/29 02:43:33;;;;;;;4.20;1.40;;;;;;;;;;4405429;32;20359;-59
2020/12/29 02:45:58;;;;;;;2.57;1.50;;;;;;;;;;4405132;32;20283;-59
2020/12/29 02:48:24;;;;;;;7.80;2.57;;;;;;;;;;4404052;32;20303;-56
2020/12/29 02:50:49;;;;;;;6.67;1.67;;;;;;;;;;4405031;32;20225;-58
2020/12/29 02:53:15;;;;;;;3.37;1.80;;;;;;;;;;4411112;32;20306;-58
2020/12/29 02:55:42;;;;;;;7.30;1.70;;;;;;;;;;4418691;32;20343;-59
2020/12/29 02:58:07;;;;;;;3.70;1.70;;;;;;;;;;4420423;32;20710;-56
2020/12/29 03:00:33;;;;;;;2.30;1.63;;;;;;;;;;4418812;32;20313;-59
2020/12/29 03:02:58;;;;;;;3.30;1.53;;;;;;;;;;4418868;32;20363;-58
2020/12/29 03:05:23;;;;;;;4.00;1.87;;;;;;;;;;4419910;32;20232;-59
2020/12/29 03:07:49;;;;;;;4.70;2.10;;;;;;;;;;4420010;32;20356;-59
2020/12/29 03:10:15;;;;;;;6.10;2.40;;;;;;;;;;4418914;32;20763;-59
2020/12/29 03:12:41;;;;;;;7.90;2.60;;;;;;;;;;4418760;32;20833;-60
2020/12/29 03:15:07;;;;;;;4.57;2.23;;;;;;;;;;4419756;32;20299;-59
2020/12/29 03:17:34;;;;;;;9.90;3.13;;;;;;;;;;4419860;32;20275;-59
2020/12/29 03:20:00;;;;;;;9.17;2.60;;;;;;;;;;4419747;32;20221;-59
2020/12/29 03:22:26;;;;;;;4.57;2.17;;;;;;;;;;4419878;32;20272;-57
2020/12/29 03:24:51;;;;;;;7.37;2.00;;;;;;;;;;4417972;32;20632;-60
2020/12/29 03:27:18;;;;;;;3.07;2.17;;;;;;;;;;4419691;32;20311;-58
2020/12/29 03:29:43;;;;;;;4.90;2.20;;;;;;;;;;4419481;32;20232;-56
2020/12/29 03:32:08;;;;;;;3.77;1.73;;;;;;;;;;4419929;32;20298;-56
2020/12/29 03:34:37;;;;;;;3.73;1.77;;;;;;;;;;4419804;32;20540;-60
2020/12/29 03:37:10;;;;;;;3.23;1.40;;;;;;;;;;4419644;32;20334;-60
2020/12/29 03:39:37;;;;;;;3.77;1.47;;;;;;;;;;4419236;32;20337;-59
2020/12/29 03:42:03;;;;;;;9.40;1.87;;;;;;;;;;4419528;32;20316;-59
2020/12/29 03:44:29;;;;;;;3.43;1.50;;;;;;;;;;4418102;32;20224;-58
2020/12/29 03:46:55;;;;;;;2.73;1.53;;;;;;;;;;4419362;32;20302;-58
2020/12/29 03:49:21;;;;;;;2.63;1.83;;;;;;;;;;4419670;32;20333;-59
2020/12/29 03:51:46;;;;;;;4.03;1.80;;;;;;;;;;4419549;32;20688;-56
2020/12/29 03:54:12;;;;;;;2.03;1.40;;;;;;;;;;4405541;32;20241;-56
2020/12/29 03:56:38;;;;;;;5.43;1.70;;;;;;;;;;4404225;32;20622;-56
2020/12/29 03:59:03;;;;;;;2.27;1.60;;;;;;;;;;4402819;32;20246;-55
2020/12/29 04:01:29;;;;;;;3.33;2.00;;;;;;;;;;4404367;32;20804;-59
2020/12/29 04:03:54;;;;;;;6.40;1.70;;;;;;;;;;4403944;32;20570;-59
2020/12/29 04:06:20;;;;;;;2.10;1.30;;;;;;;;;;4403932;32;20295;-60
2020/12/29 04:08:45;;;;;;;3.70;2.03;;;;;;;;;;4403579;32;20272;-59
2020/12/29 04:11:12;;;;;;;2.30;1.53;;;;;;;;;;4402637;32;20346;-58
2020/12/29 04:13:38;;;;;;;4.30;2.20;;;;;;;;;;4404001;32;20562;-59
2020/12/29 04:16:04;;;;;;;3.33;1.50;;;;;;;;;;4402589;32;20292;-59
2020/12/29 04:18:29;;;;;;;6.73;1.57;;;;;;;;;;4402566;32;20304;-59
2020/12/29 04:20:54;;;;;;;8.17;1.57;;;;;;;;;;4403746;32;20516;-55
2020/12/29 04:23:20;;;;;;;7.07;2.10;;;;;;;;;;4403700;32;20314;-56
2020/12/29 04:25:45;;;;;;;4.40;2.07;;;;;;;;;;4403446;32;20667;-56
2020/12/29 04:28:11;;;;;;;3.43;2.03;;;;;;;;;;4403620;32;20678;-56
2020/12/29 04:30:36;;;;;;;7.77;2.73;;;;;;;;;;4402320;32;20693;-56
2020/12/29 04:33:02;;;;;;;5.83;2.23;;;;;;;;;;4403654;32;20733;-59
2020/12/29 04:35:27;;;;;;;3.87;2.37;;;;;;;;;;4403252;32;20278;-59
2020/12/29 04:37:53;;;;;;;4.03;1.43;;;;;;;;;;4402551;32;20280;-56
2020/12/29 04:40:18;;;;;;;3.80;2.00;;;;;;;;;;4403284;32;20280;-59
2020/12/29 04:42:44;;;;;;;4.20;2.80;;;;;;;;;;4403757;32;20350;-60
2020/12/29 04:45:09;;;;;;;4.40;2.40;;;;;;;;;;4403218;32;20339;-59
2020/12/29 04:47:35;;;;;;;3.63;1.70;;;;;;;;;;4403541;32;20334;-59
2020/12/29 04:50:01;;;;;;;2.37;1.60;;;;;;;;;;4401690;32;20316;-59
2020/12/29 04:52:27;;;;;;;4.47;1.57;;;;;;;;;;4404213;32;20314;-59
2020/12/29 04:54:54;;;;;;;10.87;3.23;;;;;;;;;;4418093;32;20241;-58
2020/12/29 04:57:22;;;;;;;7.73;2.70;;;;;;;;;;4418817;32;20298;-57
2020/12/29 04:59:47;;;;;;;8.23;2.90;;;;;;;;;;4417281;32;20593;-59
2020/12/29 05:02:13;;;;;;;3.60;2.00;;;;;;;;;;4418456;32;20306;-57
2020/12/29 05:04:39;;;;;;;3.03;2.03;;;;;;;;;;4418524;32;20250;-56
2020/12/29 05:07:04;;;;;;;7.07;3.10;;;;;;;;;;4417232;32;20365;-55
2020/12/29 05:09:32;;;;;;;8.50;4.00;;;;;;;;;;4416921;32;20698;-57
2020/12/29 05:11:58;;;;;;;6.30;3.57;;;;;;;;;;4418219;32;20649;-57
2020/12/29 05:14:24;;;;;;;5.53;3.03;;;;;;;;;;4416883;32;20299;-59
2020/12/29 05:16:54;;;;;;;6.20;3.37;;;;;;;;;;4418049;32;20463;-59
2020/12/29 05:19:20;;;;;;;5.70;2.60;;;;;;;;;;4416966;32;20282;-59
2020/12/29 05:21:46;;;;;;;11.90;2.80;;;;;;;;;;4416653;32;20216;-59
2020/12/29 05:24:18;;;;;;;4.53;2.50;;;;;;;;;;4416747;32;20289;-60
2020/12/29 05:26:47;;;;;;;6.33;2.40;;;;;;;;;;4418022;32;20212;-59
2020/12/29 05:29:13;;;;;;;6.53;2.37;;;;;;;;;;4416669;32;20233;-59
2020/12/29 05:31:42;;;;;;;19.20;8.10;;;;;;;;;;4418227;32;20633;-60
2020/12/29 05:34:23;;;;;;;10.47;3.83;;;;;;;;;;4418050;32;20254;-59
2020/12/29 05:36:50;;;;;;;2.83;1.67;;;;;;;;;;4416648;32;20700;-59
2020/12/29 05:39:16;;;;;;;7.00;2.13;;;;;;;;;;4418069;32;20650;-57
2020/12/29 05:41:47;;;;;;;5.93;2.50;;;;;;;;;;4417745;32;20392;-60
2020/12/29 05:44:34;;;;;;;7.47;2.33;;;;;;;;;;4416684;32;20266;-59
2020/12/29 05:47:01;;;;;;;7.03;2.00;;;;;;;;;;4417916;32;20799;-56
2020/12/29 05:49:28;;;;;;;4.33;2.67;;;;;;;;;;4418122;32;20225;-58
2020/12/29 05:51:55;;;;;;;7.93;2.70;;;;;;;;;;4417062;32;20306;-59
2020/12/29 05:54:22;;;;;;;10.17;2.30;;;;;;;;;;4404480;32;20237;-59
2020/12/29 05:56:48;;;;;;;7.27;2.90;;;;;;;;;;4402767;32;20552;-57
2020/12/29 05:59:15;;;;;;;14.37;12.43;;;;;;;;;;4401429;32;20286;-57
2020/12/29 06:01:50;;;;;;;3.60;2.67;;;;;;;;;;4403603;32;20276;-57
2020/12/29 06:04:16;;;;;;;4.50;2.13;;;;;;;;;;4405549;32;20236;-59
2020/12/29 06:06:44;;;;;;;4.27;1.67;;;;;;;;;;4405993;32;20236;-59
2020/12/29 06:09:10;;;;;;;4.37;2.23;;;;;;;;;;4405240;32;20213;-59
2020/12/29 06:11:38;;;;;;;3.60;2.00;;;;;;;;;;4405555;32;20209;-59
2020/12/29 06:14:13;;;;;;;6.47;2.77;;;;;;;;;;4405625;32;20217;-59
2020/12/29 06:16:41;;;;;;;7.50;2.67;;;;;;;;;;4404706;32;20182;-59
2020/12/29 06:19:28;;;;;;;6.37;2.17;;;;;;;;;;4404229;32;20306;-57
2020/12/29 06:22:10;;;;;;;17.97;8.53;;;;;;;;;;4405574;32;20649;-58
2020/12/29 06:24:38;;;;;;;4.80;2.33;;;;;;;;;;4405531;32;20283;-58
2020/12/29 06:27:05;;;;;;;5.07;2.23;;;;;;;;;;4405344;32;20267;-58
2020/12/29 06:29:34;;;;;;;6.73;2.60;;;;;;;;;;4405162;32;20300;-58
2020/12/29 06:32:04;;;;;;;4.50;2.60;;;;;;;;;;4405380;32;20260;-59
2020/12/29 06:34:33;;;;;;;6.67;2.83;;;;;;;;;;4405296;32;20294;-59
2020/12/29 06:37:17;;;;;;;7.77;3.30;;;;;;;;;;4405020;32;20256;-59
2020/12/29 06:39:47;;;;;;;7.93;2.73;;;;;;;;;;4403691;32;20229;-60
2020/12/29 06:42:13;;;;;;;10.33;2.77;;;;;;;;;;4405440;32;20235;-59
2020/12/29 06:44:39;;;;;;;6.10;3.20;;;;;;;;;;4405005;32;20282;-61
2020/12/29 06:47:12;;;;;;;10.50;4.80;;;;;;;;;;4403917;32;20312;-56
2020/12/29 06:49:43;;;;;;;9.07;3.17;;;;;;;;;;4405183;32;20221;-56
2020/12/29 06:52:16;;;;;;;5.40;3.03;;;;;;;;;;4404978;32;20777;-59
2020/12/29 06:55:08;;;;;;;8.43;3.60;;;;;;;;;;4405080;32;20240;-59
2020/12/29 06:57:34;;;;;;;5.17;2.33;;;;;;;;;;4402889;32;20523;-58
2020/12/29 07:00:01;;;;;;;9.77;3.50;;;;;;;;;;4403646;32;20256;-56
2020/12/29 07:02:36;;;;;;;5.97;2.67;;;;;;;;;;4416281;32;20343;-59
2020/12/29 07:05:12;;;;;;;7.57;2.47;;;;;;;;;;4404963;32;20685;-58
2020/12/29 07:07:52;;;;;;;8.20;2.57;;;;;;;;;;4404955;32;20224;-55
2020/12/29 07:10:18;;;;;;;8.93;4.80;;;;;;;;;;4403710;32;20220;-59
2020/12/29 07:12:46;;;;;;;12.27;4.63;;;;;;;;;;4404083;32;20284;-57
2020/12/29 07:15:23;;;;;;;13.17;4.37;;;;;;;;;;4404685;32;20221;-56
2020/12/29 07:18:01;;;;;;;12.73;4.23;;;;;;;;;;4404615;32;20217;-57
2020/12/29 07:20:36;;;;;;;9.23;3.33;;;;;;;;;;4403433;32;20241;-60
2020/12/29 07:23:06;;;;;;;5.17;2.67;;;;;;;;;;4404992;32;20204;-59
2020/12/29 07:25:33;;;;;;;5.73;2.93;;;;;;;;;;4403230;32;20393;-57
2020/12/29 07:28:06;;;;;;;7.90;3.53;;;;;;;;;;4404761;32;20206;-59
2020/12/29 07:30:33;;;;;;;7.83;3.30;;;;;;;;;;4403290;32;20301;-55
2020/12/29 07:33:06;;;;;;;14.93;5.87;;;;;;;;;;4404889;32;20697;-56
2020/12/29 07:35:33;;;;;;;10.57;4.03;;;;;;;;;;4404396;32;20409;-56
2020/12/29 07:38:34;;;;;;;7.53;3.27;;;;;;;;;;4404657;32;20696;-59
2020/12/29 07:41:02;;;;;;;14.63;5.87;;;;;;;;;;4394434;32;20531;-56
2020/12/29 07:43:28;;;;;;;15.07;6.40;;;;;;;;;;4404327;32;20618;-59
2020/12/29 07:45:53;;;;;;;14.70;5.67;;;;;;;;;;4404161;32;20210;-55
2020/12/29 07:48:19;;;;;;;7.87;3.57;;;;;;;;;;4404210;32;20280;-56
2020/12/29 07:50:44;;;;;;;8.43;3.97;;;;;;;;;;4404162;32;20213;-56
2020/12/29 07:53:12;;;;;;;14.30;4.63;;;;;;;;;;4402831;32;20673;-58
2020/12/29 07:55:42;;;;;;;10.93;3.50;;;;;;;;;;4403878;32;20284;-56
2020/12/29 07:58:09;;;;;;;16.13;6.57;;;;;;;;;;4415712;32;20237;-56
2020/12/29 08:00:37;;;;;;;14.90;4.93;;;;;;;;;;4404003;32;20221;-55
2020/12/29 08:03:03;;;;;;;9.77;5.07;;;;;;;;;;4403074;32;20208;-56
2020/12/29 08:05:30;;;;;;;15.80;4.63;;;;;;;;;;4404067;32;20297;-56
2020/12/29 08:07:56;;;;;;;17.27;5.97;;;;;;;;;;4404162;32;20637;-60
2020/12/29 08:10:27;;;;;;;6.17;3.53;;;;;;;;;;4403949;32;20717;-60
2020/12/29 08:13:00;;;;;;;5.60;3.20;;;;;;;;;;4404242;32;20577;-59
2020/12/29 08:15:33;;;;;;;8.27;2.97;;;;;;;;;;4404292;32;20673;-58
2020/12/29 08:18:06;;;;;;;6.13;2.17;;;;;;;;;;4402758;32;20260;-58
2020/12/29 08:20:33;;;;;;;6.73;3.40;;;;;;;;;;4415738;32;20304;-58
2020/12/29 08:23:04;;;;;;;4.53;2.20;;;;;;;;;;4402745;32;20229;-56
2020/12/29 08:25:31;;;;;;;5.13;2.07;;;;;;;;;;4414675;32;20289;-56
2020/12/29 08:28:01;;;;;;;5.80;2.23;;;;;;;;;;4415283;32;20685;-59
2020/12/29 08:30:27;;;;;;;5.03;2.00;;;;;;;;;;4403864;32;20566;-59
2020/12/29 08:32:54;;;;;;;8.30;2.43;;;;;;;;;;4403938;32;20338;-58
2020/12/29 08:35:21;;;;;;;3.90;1.63;;;;;;;;;;4403792;32;20259;-58
2020/12/29 08:38:13;;;;;;;7.20;1.83;;;;;;;;;;4403893;32;20205;-58
2020/12/29 08:40:47;;;;;;;11.73;1.90;;;;;;;;;;4403661;32;20213;-57
2020/12/29 08:43:16;;;;;;;6.03;2.50;;;;;;;;;;4403763;32;20269;-57
2020/12/29 08:45:41;;;;;;;3.87;2.57;;;;;;;;;;4414657;32;20380;-57
2020/12/29 08:48:07;;;;;;;14.57;3.30;;;;;;;;;;4403401;32;20641;-56
2020/12/29 08:50:33;;;;;;;6.27;2.63;;;;;;;;;;4403203;32;20555;-56
2020/12/29 08:53:07;;;;;;;5.47;2.43;;;;;;;;;;4407806;32;20288;-57
2020/12/29 08:55:34;;;;;;;19.50;9.27;;;;;;;;;;4417036;32;20245;-57
2020/12/29 08:58:00;;;;;;;15.37;6.00;;;;;;;;;;4417766;32;20630;-57
2020/12/29 09:00:28;;;;;;;7.00;3.10;;;;;;;;;;4417904;32;20220;-57
2020/12/29 09:02:53;;;;;;;10.83;6.77;;;;;;;;;;4418282;32;20344;-59
2020/12/29 09:05:23;;;;;;;18.23;11.63;;;;;;;;;;4417786;32;20250;-57
2020/12/29 09:07:49;;;;;;;14.03;4.37;;;;;;;;;;4416607;32;20221;-59
2020/12/29 09:10:16;;;;;;;12.03;7.83;;;;;;;;;;4417910;32;20653;-59
2020/12/29 09:12:42;;;;;;;9.60;3.27;;;;;;;;;;4418080;32;20239;-57
2020/12/29 09:15:12;;;;;;;83.70;46.30;;;;;;;;;;4416863;32;20673;-56
2020/12/29 09:17:42;;;;;;;29.83;14.90;;;;;;;;;;4418229;32;20537;-56
2020/12/29 09:20:24;;;;;;;19.97;10.93;;;;;;;;;;4418371;32;20229;-58
2020/12/29 09:22:51;;;;;;;20.40;7.43;;;;;;;;;;4417975;32;20250;-58
2020/12/29 09:25:27;;;;;;;23.67;13.10;;;;;;;;;;4418239;32;20254;-57
2020/12/29 09:28:25;;;;;;;12.00;7.20;;;;;;;;;;4418334;32;20278;-57
2020/12/29 09:31:07;;;;;;;5.90;3.63;;;;;;;;;;4416838;32;20353;-58
2020/12/29 09:33:35;;;;;;;11.53;3.27;;;;;;;;;;4417923;32;20602;-57
2020/12/29 09:36:04;;;;;;;10.77;5.17;;;;;;;;;;4416615;32;20276;-57
2020/12/29 09:38:30;;;;;;;23.67;11.00;;;;;;;;;;4416887;32;20524;-57
2020/12/29 09:40:56;;;;;;;6.23;4.20;;;;;;;;;;4416597;32;20830;-57
2020/12/29 09:43:22;;;;;;;22.03;12.17;;;;;;;;;;4417801;32;20637;-57
2020/12/29 09:45:48;;;;;;;9.83;4.70;;;;;;;;;;4417726;32;20646;-57
2020/12/29 09:48:15;;;;;;;19.80;11.40;;;;;;;;;;4417838;32;20433;-58
2020/12/29 09:50:41;;;;;;;6.47;2.27;;;;;;;;;;4417675;32;20209;-57
2020/12/29 09:53:06;;;;;;;10.47;4.83;;;;;;;;;;4412443;32;20353;-57
2020/12/29 09:55:32;;;;;;;5.90;2.53;;;;;;;;;;4402322;32;20267;-59
2020/12/29 09:57:57;;;;;;;8.07;3.93;;;;;;;;;;4402896;32;20289;-56
2020/12/29 10:00:23;;;;;;;11.23;6.57;;;;;;;;;;4403074;32;20652;-57
2020/12/29 10:02:49;;;;;;;11.73;3.93;;;;;;;;;;4403226;32;20325;-58
2020/12/29 10:05:15;;;;;;;7.43;4.13;;;;;;;;;;4402549;32;20354;-57
2020/12/29 10:07:43;;;;;;;5.87;3.13;;;;;;;;;;4401183;32;20802;-58
2020/12/29 10:10:08;;;;;;;11.23;5.40;;;;;;;;;;4401573;32;20305;-58
2020/12/29 10:12:34;;;;;;;14.97;3.67;;;;;;;;;;4402575;32;20331;-57
2020/12/29 10:14:59;;;;;;;11.77;3.23;;;;;;;;;;4402430;32;20336;-58
2020/12/29 10:17:25;;;;;;;11.87;5.50;;;;;;;;;;4402610;32;20360;-58
2020/12/29 10:19:51;;;;;;;39.73;21.47;;;;;;;;;;4402223;32;20328;-58
2020/12/29 10:22:16;;;;;;;7.23;3.20;;;;;;;;;;4400999;32;20371;-55
2020/12/29 10:24:42;;;;;;;6.83;1.93;;;;;;;;;;4401050;32;20283;-55
2020/12/29 10:27:07;;;;;;;11.07;6.63;;;;;;;;;;4401434;32;20430;-56
2020/12/29 10:29:33;;;;;;;42.20;20.13;;;;;;;;;;4401289;32;20268;-55
2020/12/29 10:31:58;;;;;;;33.13;14.83;;;;;;;;;;4401090;32;20346;-55
2020/12/29 10:34:24;;;;;;;34.70;13.17;;;;;;;;;;4402349;32;20248;-56
2020/12/29 10:36:49;;;;;;;11.80;5.10;;;;;;;;;;4402278;32;20750;-57
2020/12/29 10:39:15;;;;;;;19.60;7.27;;;;;;;;;;4402309;32;20298;-56
2020/12/29 10:41:41;;;;;;;13.83;5.80;;;;;;;;;;4402485;32;20395;-58
2020/12/29 10:44:09;;;;;;;41.77;16.40;;;;;;;;;;4402388;32;20216;-58
2020/12/29 10:46:35;;;;;;;24.90;13.17;;;;;;;;;;4402342;32;20262;-57
2020/12/29 10:49:00;;;;;;;13.67;6.17;;;;;;;;;;4403155;32;20571;-56
2020/12/29 10:51:26;;;;;;;8.30;3.80;;;;;;;;;;4405155;32;20268;-56
2020/12/29 10:53:53;;;;;;;12.53;7.07;;;;;;;;;;4414772;32;20299;-56
2020/12/29 10:56:19;;;;;;;6.60;3.87;;;;;;;;;;4418804;32;20597;-58
2020/12/29 10:58:45;;;;;;;8.03;3.40;;;;;;;;;;4420046;32;20293;-58
2020/12/29 11:01:12;;;;;;;13.10;2.53;;;;;;;;;;4420175;32;20311;-57
2020/12/29 11:03:38;;;;;;;9.43;2.27;;;;;;;;;;4419776;32;20259;-58
2020/12/29 11:06:12;;;;;;;4.77;2.23;;;;;;;;;;4420087;32;20810;-58
2020/12/29 11:08:37;;;;;;;8.07;3.57;;;;;;;;;;4419934;32;20331;-57
2020/12/29 11:11:03;;;;;;;4.13;2.87;;;;;;;;;;4419899;32;20291;-56
2020/12/29 11:13:29;;;;;;;9.93;4.10;;;;;;;;;;4418617;32;20437;-58
2020/12/29 11:15:54;;;;;;;6.10;1.98;;;;;;;;;;4419723;32;20206;-57
2020/12/29 11:18:20;;;;;;;6.97;2.77;;;;;;;;;;4418741;32;20382;-57
2020/12/29 11:20:50;;;;;;;5.30;3.03;;;;;;;;;;4418226;32;20250;-57
2020/12/29 11:23:15;;;;;;;7.13;2.87;;;;;;;;;;4418751;32;20291;-59
2020/12/29 11:25:41;;;;;;;3.77;1.83;;;;;;;;;;4419455;32;20232;-59
2020/12/29 11:28:06;;;;;;;9.20;5.32;;;;;;;;;;4418549;32;20466;-57
2020/12/29 11:30:32;;;;;;;7.70;3.60;;;;;;;;;;4419914;32;20309;-58
2020/12/29 11:32:57;;;;;;;9.18;4.85;;;;;;;;;;4420178;32;20732;-57
2020/12/29 11:35:23;;;;;;;6.25;2.42;;;;;;;;;;4419895;32;20712;-57
2020/12/29 11:37:48;;;;;;;4.93;2.30;;;;;;;;;;4418292;32;20328;-58
2020/12/29 11:40:14;;;;;;;6.40;2.40;;;;;;;;;;4420024;32;20307;-59
2020/12/29 11:42:39;;;;;;;9.43;4.10;;;;;;;;;;4419682;32;20280;-60
2020/12/29 11:45:05;;;;;;;12.60;6.53;;;;;;;;;;4418535;32;20666;-57
2020/12/29 11:47:30;;;;;;;9.80;3.73;;;;;;;;;;4419427;32;20271;-57
2020/12/29 11:49:56;;;;;;;8.13;3.63;;;;;;;;;;4419341;32;20428;-57
2020/12/29 11:52:24;;;;;;;4.10;2.03;;;;;;;;;;4419042;32;20299;-57
2020/12/29 11:54:50;;;;;;;12.07;3.33;;;;;;;;;;4403803;32;20226;-57
2020/12/29 11:57:17;;;;;;;8.10;1.87;;;;;;;;;;4404354;32;20354;-57
2020/12/29 11:59:42;;;;;;;6.17;3.30;;;;;;;;;;4403867;32;20226;-56
2020/12/29 12:02:08;;;;;;;8.33;1.90;;;;;;;;;;4404516;32;20306;-59
2020/12/29 12:04:33;;;;;;;5.70;2.63;;;;;;;;;;4404148;32;20333;-58
2020/12/29 12:06:59;;;;;;;7.17;3.00;;;;;;;;;;4404268;32;20709;-59
2020/12/29 12:09:24;;;;;;;7.37;1.97;;;;;;;;;;4403213;32;20233;-57
2020/12/29 12:11:50;;;;;;;7.87;2.27;;;;;;;;;;4404294;32;20306;-56
2020/12/29 12:14:15;;;;;;;4.30;2.27;;;;;;;;;;4404131;32;20225;-58
2020/12/29 12:16:41;;;;;;;4.70;1.47;;;;;;;;;;4404134;32;20361;-56
2020/12/29 12:19:07;;;;;;;5.63;2.70;;;;;;;;;;4404246;32;20317;-59
2020/12/29 12:21:35;;;;;;;5.40;2.00;;;;;;;;;;4402887;32;20307;-57
2020/12/29 12:24:01;;;;;;;3.00;1.40;;;;;;;;;;4404122;32;20225;-59
2020/12/29 12:26:28;;;;;;;8.23;2.30;;;;;;;;;;4404291;32;20622;-59
2020/12/29 12:28:54;;;;;;;8.50;2.87;;;;;;;;;;4402522;32;20299;-57
2020/12/29 12:31:21;;;;;;;6.63;2.40;;;;;;;;;;4403955;32;20289;-57
2020/12/29 12:33:46;;;;;;;11.03;2.00;;;;;;;;;;4402322;32;20225;-57
2020/12/29 12:36:12;;;;;;;13.53;2.60;;;;;;;;;;4403550;32;20273;-59
2020/12/29 12:38:41;;;;;;;11.07;2.50;;;;;;;;;;4403827;32;20523;-58
2020/12/29 12:41:07;;;;;;;9.97;3.93;;;;;;;;;;4403915;32;20206;-58
2020/12/29 12:43:33;;;;;;;9.43;3.03;;;;;;;;;;4403760;32;20356;-58
2020/12/29 12:45:58;;;;;;;10.07;2.37;;;;;;;;;;4403703;32;20330;-58
2020/12/29 12:48:24;;;;;;;11.17;2.80;;;;;;;;;;4403832;32;20403;-59
2020/12/29 12:50:50;;;;;;;5.40;2.20;;;;;;;;;;4402115;32;20300;-59
2020/12/29 12:53:15;;;;;;;7.63;2.40;;;;;;;;;;4409612;32;20295;-60
2020/12/29 12:55:41;;;;;;;5.43;1.87;;;;;;;;;;4417340;32;20437;-59
2020/12/29 12:58:06;;;;;;;6.57;1.80;;;;;;;;;;4418611;32;20630;-58
2020/12/29 13:00:32;;;;;;;8.60;2.60;;;;;;;;;;4418252;32;20216;-58
2020/12/29 13:02:58;;;;;;;12.83;3.23;;;;;;;;;;4418705;32;20314;-57
2020/12/29 13:05:23;;;;;;;5.80;2.43;;;;;;;;;;4417239;32;20252;-56
2020/12/29 13:07:49;;;;;;;8.97;2.10;;;;;;;;;;4418663;32;20720;-57
2020/12/29 13:10:14;;;;;;;3.80;1.67;;;;;;;;;;4417886;32;20220;-57
2020/12/29 13:12:40;;;;;;;9.57;3.03;;;;;;;;;;4417030;32;20610;-57
2020/12/29 13:15:06;;;;;;;11.13;2.57;;;;;;;;;;4418272;32;20336;-57
2020/12/29 13:17:32;;;;;;;7.60;2.50;;;;;;;;;;4418166;32;20330;-57
2020/12/29 13:19:58;;;;;;;10.23;2.60;;;;;;;;;;4418072;32;20216;-57
2020/12/29 13:22:24;;;;;;;6.70;1.90;;;;;;;;;;4417019;32;20368;-58
2020/12/29 13:24:50;;;;;;;8.87;2.20;;;;;;;;;;4418013;32;20546;-57
2020/12/29 13:27:16;;;;;;;9.53;2.20;;;;;;;;;;4418581;32;20750;-56
2020/12/29 13:29:42;;;;;;;7.10;3.23;;;;;;;;;;4418289;32;20438;-57
2020/12/29 13:32:08;;;;;;;5.67;2.47;;;;;;;;;;4417866;32;20370;-58
2020/12/29 13:34:33;;;;;;;5.63;2.20;;;;;;;;;;4417977;32;20233;-56
2020/12/29 13:36:59;;;;;;;12.87;2.10;;;;;;;;;;4417780;32;20348;-57
2020/12/29 13:39:28;;;;;;;6.17;1.70;;;;;;;;;;4417727;32;20213;-56
2020/12/29 13:42:01;;;;;;;6.03;1.77;;;;;;;;;;4418006;32;20286;-56
2020/12/29 13:44:27;;;;;;;4.77;1.47;;;;;;;;;;4416505;32;20278;-56
2020/12/29 13:46:52;;;;;;;9.50;2.03;;;;;;;;;;4416352;32;20728;-57
2020/12/29 13:49:18;;;;;;;7.67;1.57;;;;;;;;;;4417682;32;20216;-57
2020/12/29 13:51:44;;;;;;;4.83;1.40;;;;;;;;;;4418003;32;20268;-57
2020/12/29 13:54:10;;;;;;;11.07;2.30;;;;;;;;;;4405713;32;20277;-57
2020/12/29 13:56:35;;;;;;;6.27;2.10;;;;;;;;;;4403030;32;20590;-56
2020/12/29 13:59:01;;;;;;;4.43;1.57;;;;;;;;;;4402612;32;20217;-56
2020/12/29 14:01:26;;;;;;;3.53;1.67;;;;;;;;;;4402700;32;20936;-55
2020/12/29 14:03:51;;;;;;;6.77;2.00;;;;;;;;;;4402199;32;20222;-57
2020/12/29 14:06:17;;;;;;;3.67;1.23;;;;;;;;;;4402571;32;20697;-57
2020/12/29 14:08:43;;;;;;;3.33;1.90;;;;;;;;;;4402150;32;20298;-57
2020/12/29 14:11:10;;;;;;;7.43;2.13;;;;;;;;;;4400893;32;20768;-57
2020/12/29 14:13:36;;;;;;;2.30;1.30;;;;;;;;;;4400965;32;20237;-56
2020/12/29 14:16:03;;;;;;;4.77;1.77;;;;;;;;;;4402175;32;20697;-56
2020/12/29 14:18:28;;;;;;;13.27;3.87;;;;;;;;;;4402205;32;20213;-56
2020/12/29 14:20:54;;;;;;;9.57;2.30;;;;;;;;;;4402131;32;20524;-57
2020/12/29 14:23:20;;;;;;;3.37;1.47;;;;;;;;;;4404844;32;20335;-56
2020/12/29 14:25:45;;;;;;;6.37;3.00;;;;;;;;;;4405212;32;20235;-56
2020/12/29 14:28:11;;;;;;;9.47;1.93;;;;;;;;;;4405626;32;20430;-56
2020/12/29 14:30:36;;;;;;;11.93;2.33;;;;;;;;;;4405149;32;20300;-56
2020/12/29 14:33:02;;;;;;;10.37;2.00;;;;;;;;;;4405247;32;20276;-57
2020/12/29 14:35:28;;;;;;;6.40;1.97;;;;;;;;;;4405128;32;20297;-57
2020/12/29 14:37:53;;;;;;;8.07;2.80;;;;;;;;;;4405595;32;20288;-56
2020/12/29 14:40:19;;;;;;;6.50;1.80;;;;;;;;;;4405050;32;20618;-57